Time;durP1;ratioP1;P1;durP2;ratioP2;P2;SDS_P1;SDS_P2;PMS_P1;PMS_P2;Temp;Humidity;BMP_temperature;BMP_pressure;BME280_temperature;BME280_humidity;BME280_pressure;Samples;Min_cycle;Max_cycle;Signal;HPM_P1;HPM_P2
2022/09/06 00:00:39;;;;;;;2.45;1.60;;;23.30;58.70;;;;;;6242381;23;20003;-67
2022/09/06 00:03:07;;;;;;;2.20;1.70;;;23.20;58.80;;;;;;6242574;23;20000;-67
2022/09/06 00:05:33;;;;;;;2.47;1.60;;;23.20;59.00;;;;;;6242952;23;20607;-66
2022/09/06 00:08:00;;;;;;;2.42;1.70;;;23.10;59.20;;;;;;6242960;23;20034;-66
2022/09/06 00:10:28;;;;;;;1.58;1.48;;;23.10;59.40;;;;;;6242088;23;20452;-66
2022/09/06 00:12:54;;;;;;;1.80;1.50;;;23.10;59.40;;;;;;6242712;23;20004;-66
2022/09/06 00:15:21;;;;;;;3.67;1.50;;;23.00;59.40;;;;;;6242401;23;20011;-66
2022/09/06 00:17:47;;;;;;;2.45;1.50;;;23.00;59.50;;;;;;6242628;23;20050;-66
2022/09/06 00:20:14;;;;;;;2.75;1.70;;;23.00;59.30;;;;;;6242680;23;20082;-65
2022/09/06 00:22:39;;;;;;;1.85;1.65;;;23.00;60.10;;;;;;6242349;23;20000;-65
2022/09/06 00:25:06;;;;;;;2.20;1.50;;;23.00;59.40;;;;;;6242698;23;20011;-66
2022/09/06 00:27:32;;;;;;;1.50;1.40;;;23.00;59.40;;;;;;6242166;23;20008;-66
2022/09/06 00:29:57;;;;;;;2.95;1.70;;;23.00;60.10;;;;;;6242404;23;20015;-66
2022/09/06 00:32:23;;;;;;;4.32;1.95;;;23.00;59.50;;;;;;6242693;23;20000;-66
2022/09/06 00:34:49;;;;;;;3.25;1.60;;;23.00;59.50;;;;;;6242091;23;20027;-67
2022/09/06 00:37:14;;;;;;;2.75;1.40;;;23.00;59.40;;;;;;6242143;23;20000;-67
2022/09/06 00:39:40;;;;;;;2.10;1.42;;;23.00;59.30;;;;;;6242153;23;20004;-67
2022/09/06 00:42:10;;;;;;;1.83;1.40;;;23.00;59.30;;;;;;6242437;23;20007;-67
2022/09/06 00:44:37;;;;;;;2.42;1.63;;;23.00;59.40;;;;;;6242004;23;20482;-68
2022/09/06 00:47:02;;;;;;;2.92;1.40;;;23.00;59.40;;;;;;6240102;23;20083;-67
2022/09/06 00:49:32;;;;;;;4.65;2.05;;;23.00;59.50;;;;;;6242653;23;20081;-68
2022/09/06 00:52:03;;;;;;;2.97;1.67;;;22.90;59.80;;;;;;6241757;23;20000;-68
2022/09/06 00:54:29;;;;;;;4.43;1.80;;;22.90;60.10;;;;;;6242493;23;20086;-68
2022/09/06 00:56:57;;;;;;;1.98;1.58;;;22.80;60.70;;;;;;6242082;23;20247;-67
2022/09/06 00:59:24;;;;;;;2.65;1.67;;;22.70;61.10;;;;;;6241967;23;20004;-67
2022/09/06 01:01:50;;;;;;;3.03;1.70;;;22.70;61.40;;;;;;6242276;23;20004;-68
2022/09/06 01:04:15;;;;;;;1.75;1.60;;;22.50;61.70;;;;;;6242334;23;20425;-68
2022/09/06 01:07:09;;;;;;;1.92;1.70;;;22.50;62.20;;;;;;6242057;23;20005;-67
2022/09/06 01:09:47;;;;;;;2.42;1.80;;;22.40;62.40;;;;;;6241803;23;20341;-67
2022/09/06 01:12:27;;;;;;;2.00;1.50;;;22.40;62.90;;;;;;6242290;23;20024;-69
2022/09/06 01:15:02;;;;;;;2.42;1.40;;;22.30;63.10;;;;;;6242419;23;20001;-68
2022/09/06 01:17:55;;;;;;;1.75;1.48;;;22.30;63.00;;;;;;6241193;23;20004;-67
2022/09/06 01:20:48;;;;;;;2.30;1.90;;;22.30;63.10;;;;;;6241523;23;20000;-67
2022/09/06 01:23:32;;;;;;;4.07;1.80;;;22.20;64.50;;;;;;6239670;23;20003;-67
2022/09/06 01:26:19;;;;;;;1.98;1.50;;;22.10;65.00;;;;;;6242133;23;20001;-67
2022/09/06 01:28:46;;;;;;;1.45;1.35;;;22.10;65.00;;;;;;6210816;23;20032;-68
2022/09/06 01:31:23;;;;;;;1.60;1.35;;;22.10;64.80;;;;;;6211555;23;19997;-68
2022/09/06 01:34:04;;;;;;;1.88;1.40;;;22.10;64.80;;;;;;6211489;23;20000;-68
2022/09/06 01:36:35;;;;;;;2.45;1.58;;;22.20;65.00;;;;;;6211437;23;20031;-68
2022/09/06 01:39:01;;;;;;;3.45;1.67;;;22.20;65.10;;;;;;6184928;23;20035;-68
2022/09/06 01:41:28;;;;;;;3.50;1.60;;;22.10;65.60;;;;;;6211458;23;20067;-68
2022/09/06 01:43:55;;;;;;;1.77;1.50;;;22.00;65.80;;;;;;6210980;23;20006;-68
2022/09/06 01:46:39;;;;;;;1.75;1.50;;;22.00;66.00;;;;;;6210700;23;20000;-68
2022/09/06 01:49:26;;;;;;;1.70;1.60;;;21.90;66.30;;;;;;6211289;23;20055;-68
2022/09/06 01:52:30;;;;;;;2.30;1.40;;;21.90;66.60;;;;;;6211373;23;20004;-68
2022/09/06 01:55:13;;;;;;;2.03;1.63;;;21.90;66.50;;;;;;6211664;23;20040;-67
2022/09/06 01:57:45;;;;;;;1.83;1.40;;;21.90;66.60;;;;;;6211336;23;20056;-68
2022/09/06 02:00:19;;;;;;;1.92;1.45;;;21.90;66.50;;;;;;6211512;23;20429;-67
2022/09/06 02:03:10;;;;;;;1.60;1.40;;;22.00;66.50;;;;;;6185211;23;20326;-68
2022/09/06 02:05:53;;;;;;;2.22;1.48;;;22.00;66.50;;;;;;6212418;23;20000;-68
2022/09/06 02:08:28;;;;;;;2.40;1.48;;;22.00;66.30;;;;;;6212942;23;20008;-68
2022/09/06 02:11:01;;;;;;;1.92;1.50;;;22.10;66.30;;;;;;6212143;23;19997;-69
2022/09/06 02:13:31;;;;;;;2.08;1.60;;;22.00;66.60;;;;;;6212263;23;20005;-68
2022/09/06 02:16:03;;;;;;;1.40;1.30;;;22.00;66.80;;;;;;6212586;23;20059;-68
2022/09/06 02:18:37;;;;;;;2.78;1.50;;;21.90;66.90;;;;;;6211391;23;20081;-68
2022/09/06 02:21:05;;;;;;;2.55;1.80;;;21.90;67.00;;;;;;6211840;23;20036;-68
2022/09/06 02:23:35;;;;;;;3.30;1.80;;;21.80;67.50;;;;;;6211117;23;20017;-68
2022/09/06 02:26:23;;;;;;;1.95;1.60;;;21.80;68.00;;;;;;6211748;23;20447;-67
2022/09/06 02:28:49;;;;;;;1.90;1.13;;;21.70;68.00;;;;;;6211095;23;20119;-67
2022/09/06 02:31:41;;;;;;;2.20;1.70;;;21.70;67.90;;;;;;6211608;23;20032;-66
2022/09/06 02:34:09;;;;;;;1.98;1.50;;;21.70;68.10;;;;;;6211600;23;20024;-67
2022/09/06 02:36:36;;;;;;;1.52;1.30;;;21.60;68.40;;;;;;6211143;23;20093;-67
2022/09/06 02:39:01;;;;;;;2.38;2.15;;;21.50;68.70;;;;;;6214016;23;20035;-67
2022/09/06 02:41:29;;;;;;;3.45;2.60;;;21.30;69.60;;;;;;6222252;23;19997;-67
2022/09/06 02:43:55;;;;;;;3.58;2.83;;;21.10;70.90;;;;;;6217755;23;19996;-67
2022/09/06 02:46:23;;;;;;;3.67;2.63;;;20.90;72.80;;;;;;6186765;23;20008;-67
2022/09/06 02:48:48;;;;;;;3.35;2.30;;;20.70;74.00;;;;;;6213325;23;20001;-67
2022/09/06 02:51:14;;;;;;;4.25;3.10;;;20.60;75.10;;;;;;6217045;23;20004;-67
2022/09/06 02:53:40;;;;;;;5.80;3.00;;;20.40;76.60;;;;;;6211845;23;20080;-67
2022/09/06 02:56:05;;;;;;;3.08;2.45;;;20.30;77.20;;;;;;6184960;23;20004;-68
2022/09/06 02:58:31;;;;;;;3.58;2.88;;;20.30;77.20;;;;;;6212027;23;20024;-68
2022/09/06 03:00:56;;;;;;;4.47;2.85;;;20.30;77.60;;;;;;6211317;23;20001;-67
2022/09/06 03:03:23;;;;;;;4.18;2.72;;;20.30;77.40;;;;;;6211763;23;20007;-68
2022/09/06 03:05:50;;;;;;;5.13;3.00;;;20.30;77.40;;;;;;6211118;23;20000;-67
2022/09/06 03:08:18;;;;;;;3.75;2.60;;;20.20;77.70;;;;;;6213123;23;20027;-68
2022/09/06 03:10:54;;;;;;;3.75;2.60;;;20.30;77.40;;;;;;6213599;23;20043;-67
2022/09/06 03:13:20;;;;;;;2.40;2.13;;;20.40;76.60;;;;;;6213305;23;20052;-67
2022/09/06 03:15:50;;;;;;;2.85;2.30;;;20.50;75.90;;;;;;6213037;23;20492;-68
2022/09/06 03:18:16;;;;;;;2.95;2.30;;;20.60;75.30;;;;;;6185984;23;20028;-67
2022/09/06 03:20:41;;;;;;;3.08;2.10;;;20.70;74.80;;;;;;6213180;23;20004;-68
2022/09/06 03:23:08;;;;;;;2.42;1.70;;;20.80;74.30;;;;;;6213190;23;20032;-67
2022/09/06 03:25:34;;;;;;;3.03;2.00;;;20.80;74.00;;;;;;6213096;23;20438;-68
2022/09/06 03:27:59;;;;;;;3.13;2.00;;;20.90;73.80;;;;;;6235868;23;20008;-68
2022/09/06 03:30:25;;;;;;;3.78;1.80;;;20.90;73.50;;;;;;6243235;23;20004;-68
2022/09/06 03:32:50;;;;;;;2.40;1.88;;;21.00;73.20;;;;;;6243397;23;20008;-67
2022/09/06 03:35:16;;;;;;;2.13;1.60;;;21.00;72.90;;;;;;6242987;23;20004;-67
2022/09/06 03:37:41;;;;;;;1.60;1.50;;;21.10;72.70;;;;;;6243084;23;20004;-67
2022/09/06 03:40:08;;;;;;;2.35;2.13;;;21.20;72.60;;;;;;6243457;23;20004;-67
2022/09/06 03:42:33;;;;;;;2.10;1.90;;;21.10;72.90;;;;;;6242760;23;20000;-67
2022/09/06 03:44:59;;;;;;;3.15;1.92;;;21.10;72.80;;;;;;6243300;23;20058;-67
2022/09/06 03:47:24;;;;;;;3.10;2.03;;;21.20;72.70;;;;;;6242707;23;20425;-67
2022/09/06 03:49:50;;;;;;;2.33;1.70;;;21.20;72.50;;;;;;6243231;23;20004;-67
2022/09/06 03:52:16;;;;;;;2.03;1.70;;;21.20;72.50;;;;;;6243114;23;20000;-67
2022/09/06 03:54:41;;;;;;;2.45;1.80;;;21.30;72.60;;;;;;6243062;23;20012;-67
2022/09/06 03:57:07;;;;;;;2.15;1.95;;;21.20;72.40;;;;;;6242892;23;20061;-67
2022/09/06 03:59:32;;;;;;;2.45;1.83;;;21.20;72.50;;;;;;6242655;23;20046;-67
2022/09/06 04:01:58;;;;;;;2.00;1.50;;;21.20;72.70;;;;;;6242992;23;19996;-67
2022/09/06 04:04:23;;;;;;;2.55;1.92;;;21.30;72.50;;;;;;6243102;23;20007;-67
2022/09/06 04:06:49;;;;;;;2.55;1.80;;;21.30;72.40;;;;;;6242884;23;20380;-67
2022/09/06 04:09:15;;;;;;;2.17;1.70;;;21.30;72.70;;;;;;6241485;23;20004;-67
2022/09/06 04:11:40;;;;;;;2.20;1.80;;;21.30;72.60;;;;;;6242545;23;20016;-67
2022/09/06 04:14:06;;;;;;;2.60;1.63;;;21.20;72.80;;;;;;6243162;23;20127;-68
2022/09/06 04:16:31;;;;;;;2.75;2.10;;;21.20;72.70;;;;;;6242650;23;20000;-67
2022/09/06 04:18:59;;;;;;;2.72;1.98;;;21.20;72.70;;;;;;6242814;23;20007;-67
2022/09/06 04:21:25;;;;;;;2.83;1.90;;;21.20;72.60;;;;;;6242792;23;20020;-67
2022/09/06 04:23:51;;;;;;;2.05;1.70;;;21.20;72.60;;;;;;6242041;23;20004;-67
2022/09/06 04:26:16;;;;;;;2.95;2.38;;;21.20;72.50;;;;;;6240900;23;20058;-66
2022/09/06 04:28:42;;;;;;;2.55;2.13;;;21.20;72.60;;;;;;6241572;23;20009;-66
2022/09/06 04:31:08;;;;;;;2.72;2.13;;;21.20;72.80;;;;;;6242451;23;20011;-67
2022/09/06 04:33:35;;;;;;;2.20;1.80;;;21.20;72.90;;;;;;6242013;23;20000;-67
2022/09/06 04:36:04;;;;;;;3.40;2.30;;;21.10;72.80;;;;;;6241478;23;20314;-67
2022/09/06 04:38:33;;;;;;;2.70;2.25;;;21.20;72.80;;;;;;6242935;23;20003;-67
2022/09/06 04:40:58;;;;;;;2.40;1.98;;;21.20;72.90;;;;;;6242466;23;20099;-67
2022/09/06 04:43:24;;;;;;;2.78;2.28;;;21.10;72.80;;;;;;6242767;23;20440;-66
2022/09/06 04:45:50;;;;;;;2.70;2.00;;;21.20;72.70;;;;;;6242359;23;20433;-67
2022/09/06 04:48:15;;;;;;;2.92;2.10;;;21.20;72.40;;;;;;6242912;23;20010;-67
2022/09/06 04:50:41;;;;;;;3.05;1.90;;;21.30;72.20;;;;;;6242342;23;20036;-67
2022/09/06 04:53:07;;;;;;;2.85;2.28;;;21.30;72.00;;;;;;6242657;23;20440;-67
2022/09/06 04:55:33;;;;;;;3.55;2.40;;;21.30;72.20;;;;;;6242153;23;20011;-67
2022/09/06 04:58:00;;;;;;;2.60;2.05;;;21.30;72.20;;;;;;6242733;23;20404;-67
2022/09/06 05:00:30;;;;;;;3.47;2.17;;;21.30;72.10;;;;;;6241909;23;20499;-67
2022/09/06 05:02:56;;;;;;;3.25;2.20;;;21.30;72.00;;;;;;6242449;23;19996;-67
2022/09/06 05:05:22;;;;;;;2.90;2.35;;;21.40;71.90;;;;;;6242308;23;20008;-67
2022/09/06 05:07:51;;;;;;;2.53;2.20;;;21.40;71.70;;;;;;6242475;23;20074;-67
2022/09/06 05:10:16;;;;;;;2.53;2.10;;;21.40;71.60;;;;;;6242428;23;20000;-68
2022/09/06 05:12:42;;;;;;;3.50;2.22;;;21.40;71.60;;;;;;6241985;23;20000;-67
2022/09/06 05:15:08;;;;;;;3.28;2.00;;;21.40;71.50;;;;;;6242985;23;20004;-68
2022/09/06 05:17:34;;;;;;;2.15;1.95;;;21.40;71.50;;;;;;6241998;23;20035;-68
2022/09/06 05:19:59;;;;;;;2.22;2.00;;;21.40;71.60;;;;;;6240526;23;20050;-68
2022/09/06 05:22:25;;;;;;;3.58;2.50;;;21.40;71.60;;;;;;6242528;23;19996;-68
2022/09/06 05:24:51;;;;;;;2.13;1.92;;;21.40;71.60;;;;;;6242078;23;20008;-68
2022/09/06 05:27:16;;;;;;;2.75;2.35;;;21.40;71.70;;;;;;6242120;23;20043;-68
2022/09/06 05:29:42;;;;;;;2.42;2.22;;;21.40;71.70;;;;;;6241532;23;20000;-67
2022/09/06 05:32:07;;;;;;;2.33;2.13;;;21.40;71.70;;;;;;6242197;23;20329;-68
2022/09/06 05:34:33;;;;;;;2.30;2.10;;;21.50;71.50;;;;;;6242451;23;20028;-68
2022/09/06 05:36:59;;;;;;;2.45;2.10;;;21.50;71.40;;;;;;6241031;23;20083;-68
2022/09/06 05:39:24;;;;;;;2.65;2.22;;;21.60;71.30;;;;;;6241131;23;20028;-68
2022/09/06 05:41:50;;;;;;;3.63;2.10;;;21.50;71.20;;;;;;6239516;23;20000;-68
2022/09/06 05:44:15;;;;;;;4.07;2.22;;;21.60;71.20;;;;;;6241813;23;20004;-68
2022/09/06 05:46:42;;;;;;;2.65;2.00;;;21.60;70.90;;;;;;6242028;23;20080;-68
2022/09/06 05:49:09;;;;;;;2.15;1.95;;;21.70;70.90;;;;;;6241673;23;20091;-68
2022/09/06 05:51:34;;;;;;;2.33;1.98;;;21.70;70.80;;;;;;6240956;23;20084;-68
2022/09/06 05:54:00;;;;;;;2.47;2.10;;;21.80;70.70;;;;;;6242078;23;20428;-69
2022/09/06 05:56:25;;;;;;;2.20;1.88;;;21.80;70.60;;;;;;6241519;23;20071;-68
2022/09/06 05:58:51;;;;;;;2.70;2.00;;;21.80;70.40;;;;;;6241270;23;20118;-67
2022/09/06 06:01:23;;;;;;;2.53;1.98;;;21.90;70.40;;;;;;6240759;23;20063;-67
2022/09/06 06:03:57;;;;;;;2.55;2.35;;;22.00;70.20;;;;;;6241684;23;20314;-67
2022/09/06 06:06:24;;;;;;;3.90;2.35;;;22.10;70.00;;;;;;6241396;23;20000;-67
2022/09/06 06:08:50;;;;;;;3.47;2.10;;;22.20;69.80;;;;;;6241055;23;20004;-66
2022/09/06 06:11:16;;;;;;;2.53;2.30;;;22.30;69.40;;;;;;6241564;23;20054;-67
2022/09/06 06:13:42;;;;;;;3.08;2.40;;;22.50;68.90;;;;;;6240879;23;20011;-67
2022/09/06 06:16:15;;;;;;;2.80;2.05;;;23.40;67.70;;;;;;6240437;23;20439;-67
2022/09/06 06:18:43;;;;;;;3.78;2.60;;;24.70;64.90;;;;;;6241313;23;20000;-68
2022/09/06 06:21:14;;;;;;;2.55;2.35;;;26.10;62.10;;;;;;6241550;23;20050;-67
2022/09/06 06:23:41;;;;;;;2.85;2.35;;;27.50;59.10;;;;;;6241791;23;20007;-68
2022/09/06 06:26:08;;;;;;;2.33;2.00;;;28.60;56.50;;;;;;6240782;22;20050;-68
2022/09/06 06:28:34;;;;;;;2.05;1.90;;;29.70;54.60;;;;;;6240734;23;20008;-68
2022/09/06 06:31:01;;;;;;;2.78;2.53;;;30.40;53.10;;;;;;6240432;23;20043;-68
2022/09/06 06:33:26;;;;;;;2.88;2.40;;;31.00;51.80;;;;;;6241384;23;19996;-68
2022/09/06 06:36:02;;;;;;;3.50;2.30;;;31.60;50.60;;;;;;6241367;23;20000;-68
2022/09/06 06:38:36;;;;;;;2.15;1.95;;;32.00;49.90;;;;;;6241448;23;20009;-67
2022/09/06 06:41:03;;;;;;;2.40;2.20;;;32.60;49.10;;;;;;6242042;23;20329;-68
2022/09/06 06:43:35;;;;;;;3.13;2.55;;;33.00;48.20;;;;;;6243751;23;20000;-67
2022/09/06 06:46:04;;;;;;;3.88;2.65;;;33.50;47.10;;;;;;6244256;23;20006;-68
2022/09/06 06:48:30;;;;;;;3.05;2.35;;;33.90;46.20;;;;;;6243612;23;20337;-68
2022/09/06 06:50:55;;;;;;;3.00;2.30;;;34.20;45.50;;;;;;6242843;22;20076;-68
2022/09/06 06:53:21;;;;;;;3.70;2.33;;;34.40;45.00;;;;;;6243360;23;20018;-68
2022/09/06 06:55:47;;;;;;;3.03;2.17;;;34.60;44.30;;;;;;6241993;23;20000;-68
2022/09/06 06:58:14;;;;;;;3.33;2.60;;;35.00;43.90;;;;;;6243183;23;20485;-68
2022/09/06 07:00:40;;;;;;;2.83;2.30;;;35.10;43.10;;;;;;6242579;23;20397;-68
2022/09/06 07:03:07;;;;;;;3.80;2.10;;;35.20;42.90;;;;;;6243098;23;20007;-69
2022/09/06 07:05:32;;;;;;;3.90;2.85;;;35.40;42.70;;;;;;6241254;23;20032;-68
2022/09/06 07:07:58;;;;;;;2.30;2.00;;;35.30;41.60;;;;;;6241847;23;20054;-66
2022/09/06 07:10:24;;;;;;;2.83;2.30;;;35.20;41.70;;;;;;6241877;23;20469;-68
2022/09/06 07:12:50;;;;;;;2.85;2.30;;;35.40;41.40;;;;;;6240887;23;20035;-67
2022/09/06 07:15:16;;;;;;;4.72;2.30;;;35.70;41.10;;;;;;6243082;23;20088;-67
2022/09/06 07:17:42;;;;;;;1.95;1.73;;;36.10;40.60;;;;;;6241783;23;20770;-67
2022/09/06 07:20:09;;;;;;;4.07;2.35;;;36.10;40.00;;;;;;6242331;23;20453;-67
2022/09/06 07:22:34;;;;;;;2.50;1.95;;;35.90;39.30;;;;;;6242588;23;20000;-67
2022/09/06 07:25:00;;;;;;;2.53;2.13;;;35.80;39.60;;;;;;6243037;23;20012;-68
2022/09/06 07:27:25;;;;;;;2.60;2.15;;;35.60;39.50;;;;;;6241613;23;20012;-68
2022/09/06 07:29:51;;;;;;;2.83;2.55;;;35.90;39.60;;;;;;6242639;23;20349;-68
2022/09/06 07:32:17;;;;;;;2.55;2.05;;;36.00;38.50;;;;;;6242921;23;20000;-67
2022/09/06 07:34:42;;;;;;;2.33;2.00;;;35.90;38.20;;;;;;6242775;23;20035;-68
2022/09/06 07:37:08;;;;;;;3.40;2.00;;;35.70;38.50;;;;;;6238827;23;20011;-68
2022/09/06 07:39:35;;;;;;;3.78;2.50;;;35.70;38.50;;;;;;6240858;23;20076;-67
2022/09/06 07:42:02;;;;;;;2.88;1.98;;;35.30;38.10;;;;;;6240174;23;20035;-68
2022/09/06 07:44:28;;;;;;;3.60;2.30;;;34.70;38.40;;;;;;6241442;23;20004;-67
2022/09/06 07:46:54;;;;;;;1.80;1.33;;;34.20;39.00;;;;;;6241404;23;20007;-67
2022/09/06 07:49:20;;;;;;;3.95;3.03;;;33.90;39.60;;;;;;6242140;23;20004;-67
2022/09/06 07:51:47;;;;;;;3.70;2.97;;;33.30;39.50;;;;;;6242411;23;20084;-68
2022/09/06 07:54:12;;;;;;;3.35;2.55;;;32.50;40.20;;;;;;6242847;23;20005;-67
2022/09/06 07:56:38;;;;;;;2.72;1.92;;;31.60;41.50;;;;;;6243266;23;20471;-67
2022/09/06 07:59:03;;;;;;;3.47;2.70;;;31.20;42.50;;;;;;6242229;23;20599;-67
2022/09/06 08:01:35;;;;;;;3.63;2.50;;;30.90;43.10;;;;;;6242988;23;20019;-68
2022/09/06 08:04:03;;;;;;;3.38;2.92;;;30.00;44.60;;;;;;6243023;23;20008;-68
2022/09/06 08:06:31;;;;;;;2.95;2.42;;;29.00;46.40;;;;;;6243033;23;20051;-66
2022/09/06 08:08:57;;;;;;;4.47;3.20;;;28.50;47.80;;;;;;6242914;23;20444;-66
2022/09/06 08:11:26;;;;;;;3.45;2.67;;;28.00;48.80;;;;;;6242607;23;20026;-66
2022/09/06 08:13:54;;;;;;;2.92;2.13;;;27.70;49.50;;;;;;6242554;23;20452;-66
2022/09/06 08:16:20;;;;;;;3.72;2.88;;;27.40;50.00;;;;;;6242908;23;20318;-66
2022/09/06 08:18:53;;;;;;;3.42;2.88;;;27.20;50.40;;;;;;6242674;23;20007;-66
2022/09/06 08:21:22;;;;;;;2.88;2.30;;;26.90;50.90;;;;;;6242985;23;20023;-67
2022/09/06 08:23:50;;;;;;;3.90;3.00;;;26.50;51.80;;;;;;6242382;23;20038;-67
2022/09/06 08:26:17;;;;;;;3.28;2.65;;;26.30;52.60;;;;;;6242178;23;20004;-67
2022/09/06 08:28:43;;;;;;;3.08;2.38;;;26.00;53.10;;;;;;6240635;23;20079;-67
2022/09/06 08:31:16;;;;;;;3.10;2.50;;;26.00;53.40;;;;;;6242549;23;20046;-66
2022/09/06 08:33:43;;;;;;;3.63;2.75;;;25.90;53.50;;;;;;6242274;23;20519;-67
2022/09/06 08:36:10;;;;;;;3.20;2.05;;;25.90;53.90;;;;;;6239864;23;20004;-68
2022/09/06 08:38:36;;;;;;;3.78;2.45;;;25.90;53.80;;;;;;6237341;23;19997;-67
2022/09/06 08:41:15;;;;;;;4.20;2.50;;;25.90;53.90;;;;;;6240554;23;20004;-67
2022/09/06 08:43:55;;;;;;;5.63;3.38;;;25.90;54.20;;;;;;6240687;23;20000;-67
2022/09/06 08:46:35;;;;;;;3.15;2.30;;;25.90;54.30;;;;;;6238229;23;20057;-67
2022/09/06 08:49:01;;;;;;;3.40;2.60;;;25.90;54.40;;;;;;6239237;23;20000;-67
2022/09/06 08:51:35;;;;;;;4.35;2.80;;;25.90;54.40;;;;;;6240824;23;20055;-67
2022/09/06 08:54:10;;;;;;;4.35;2.50;;;25.90;54.30;;;;;;6240784;23;20012;-67
2022/09/06 08:57:03;;;;;;;3.55;2.58;;;25.80;54.20;;;;;;6240559;23;20372;-67
2022/09/06 08:59:36;;;;;;;3.75;2.67;;;25.70;54.10;;;;;;6239993;23;20000;-67
2022/09/06 09:02:17;;;;;;;3.55;2.83;;;25.80;54.10;;;;;;6239717;23;20019;-67
2022/09/06 09:04:47;;;;;;;4.22;2.88;;;25.90;54.10;;;;;;6240005;23;20003;-67
2022/09/06 09:07:35;;;;;;;5.13;4.18;;;25.90;54.10;;;;;;6240989;23;20004;-67
2022/09/06 09:10:08;;;;;;;4.40;2.83;;;25.70;53.70;;;;;;6240398;23;20091;-68
2022/09/06 09:12:42;;;;;;;6.30;3.53;;;25.70;54.20;;;;;;6240352;23;20503;-67
2022/09/06 09:15:11;;;;;;;4.43;3.40;;;25.60;54.00;;;;;;6240577;23;20000;-67
2022/09/06 09:17:37;;;;;;;3.40;2.72;;;25.60;54.50;;;;;;6238869;23;20028;-67
2022/09/06 09:20:03;;;;;;;5.40;2.88;;;25.70;54.10;;;;;;6240301;23;20329;-68
2022/09/06 09:22:29;;;;;;;4.85;3.05;;;25.80;54.10;;;;;;6240261;23;20004;-68
2022/09/06 09:24:57;;;;;;;5.00;3.03;;;25.90;54.00;;;;;;6240426;23;20473;-68
2022/09/06 09:27:27;;;;;;;4.05;2.28;;;26.00;53.80;;;;;;6238830;23;20008;-73
2022/09/06 09:29:52;;;;;;;4.88;2.80;;;26.10;53.60;;;;;;6239972;23;20008;-69
2022/09/06 09:32:38;;;;;;;4.13;2.60;;;26.10;53.20;;;;;;6238942;23;20395;-69
2022/09/06 09:35:19;;;;;;;5.30;2.78;;;26.20;53.00;;;;;;6239842;23;20008;-69
2022/09/06 09:37:45;;;;;;;;;;;26.20;52.70;;;;;;6239195;23;19999;-69
2022/09/06 09:40:45;;;;;;;4.47;2.90;;;26.30;52.50;;;;;;6239827;22;19918;-69
2022/09/06 09:43:34;;;;;;;2.53;2.20;;;26.30;52.50;;;;;;6238466;23;20013;-69
2022/09/06 09:46:21;;;;;;;4.57;2.90;;;26.30;52.50;;;;;;6239676;23;20075;-69
2022/09/06 09:49:04;;;;;;;3.35;2.53;;;26.30;52.10;;;;;;6238861;23;20100;-68
2022/09/06 09:51:31;;;;;;;4.10;2.30;;;26.40;52.10;;;;;;6238787;23;20011;-68
2022/09/06 09:53:59;;;;;;;3.90;2.35;;;26.50;52.20;;;;;;6239554;23;20488;-68
2022/09/06 09:56:27;;;;;;;4.47;2.60;;;26.60;52.00;;;;;;6238254;23;20004;-68
2022/09/06 09:58:56;;;;;;;3.53;3.05;;;26.70;51.90;;;;;;6238550;23;20007;-68
2022/09/06 10:01:26;;;;;;;4.82;3.20;;;26.70;51.30;;;;;;6239964;23;20008;-67
2022/09/06 10:04:00;;;;;;;3.75;2.10;;;26.70;51.00;;;;;;6240167;23;20095;-67
2022/09/06 10:06:26;;;;;;;4.30;2.30;;;26.70;51.20;;;;;;6210252;23;20076;-70
2022/09/06 10:08:53;;;;;;;3.78;2.10;;;26.80;51.50;;;;;;6207801;23;20025;-68
2022/09/06 10:11:38;;;;;;;3.10;2.10;;;26.90;51.30;;;;;;6209751;23;20008;-68
2022/09/06 10:14:24;;;;;;;3.88;2.42;;;27.00;50.80;;;;;;6209249;23;20005;-68
2022/09/06 10:16:51;;;;;;;3.63;1.85;;;27.00;50.00;;;;;;6209209;23;20067;-67
2022/09/06 10:19:36;;;;;;;2.60;2.17;;;27.10;50.30;;;;;;6207940;23;20001;-67
2022/09/06 10:22:18;;;;;;;2.95;2.20;;;27.10;49.70;;;;;;6210043;23;20096;-68
2022/09/06 10:25:26;;;;;;;2.15;1.67;;;27.00;49.20;;;;;;6209198;23;20004;-68
2022/09/06 10:28:21;;;;;;;3.58;1.83;;;27.00;49.50;;;;;;6193842;23;20025;-68
2022/09/06 10:30:52;;;;;;;1.90;1.50;;;27.20;49.60;;;;;;6209419;23;20055;-67
2022/09/06 10:33:34;;;;;;;2.25;1.85;;;27.20;49.50;;;;;;6207914;23;20008;-67
2022/09/06 10:36:02;;;;;;;3.25;2.67;;;27.30;49.30;;;;;;6209326;23;20004;-67
2022/09/06 10:38:34;;;;;;;4.85;3.17;;;27.20;48.90;;;;;;6207939;23;20032;-67
2022/09/06 10:41:03;;;;;;;3.88;1.95;;;27.10;49.00;;;;;;6208372;23;20005;-67
2022/09/06 10:43:53;;;;;;;4.50;3.03;;;27.10;49.30;;;;;;6209886;23;20515;-67
2022/09/06 10:46:23;;;;;;;4.93;2.30;;;27.10;48.90;;;;;;6208805;23;20009;-68
2022/09/06 10:48:52;;;;;;;2.20;1.70;;;27.20;49.10;;;;;;6208322;23;20004;-68
2022/09/06 10:51:39;;;;;;;3.03;2.00;;;27.30;49.10;;;;;;6210956;23;20373;-68
2022/09/06 10:54:10;;;;;;;4.38;2.00;;;27.40;49.00;;;;;;6208452;23;20076;-68
2022/09/06 10:56:39;;;;;;;3.47;1.80;;;27.50;48.80;;;;;;6208709;23;20008;-68
2022/09/06 10:59:30;;;;;;;2.92;2.33;;;27.60;48.70;;;;;;6206886;23;20397;-68
2022/09/06 11:02:28;;;;;;;3.03;1.60;;;27.60;48.10;;;;;;6209013;23;20051;-68
2022/09/06 11:05:00;;;;;;;1.77;1.45;;;27.70;48.30;;;;;;6208145;23;20539;-68
2022/09/06 11:07:33;;;;;;;2.72;1.45;;;27.90;48.20;;;;;;6208938;23;20381;-67
2022/09/06 11:10:19;;;;;;;4.15;1.60;;;27.90;47.90;;;;;;6208971;23;20008;-68
2022/09/06 11:12:45;;;;;;;1.52;1.20;;;28.10;47.90;;;;;;6209126;23;20074;-68
2022/09/06 11:15:13;;;;;;;3.03;1.70;;;28.30;47.80;;;;;;6209131;23;20005;-68
2022/09/06 11:17:49;;;;;;;1.67;1.58;;;28.40;47.40;;;;;;6207737;23;20005;-68
2022/09/06 11:20:32;;;;;;;3.10;1.80;;;28.40;47.30;;;;;;6209333;23;20005;-68
2022/09/06 11:23:21;;;;;;;1.48;1.30;;;28.50;47.20;;;;;;6208693;23;20054;-69
2022/09/06 11:26:08;;;;;;;1.70;1.50;;;28.60;47.10;;;;;;6208649;23;20008;-68
2022/09/06 11:28:43;;;;;;;4.82;2.60;;;28.80;46.90;;;;;;6208149;23;20012;-68
2022/09/06 11:31:12;;;;;;;2.63;1.60;;;28.80;46.10;;;;;;6210746;23;20016;-69
2022/09/06 11:33:39;;;;;;;3.08;1.98;;;28.60;46.10;;;;;;6211125;23;20012;-69
2022/09/06 11:36:33;;;;;;;2.28;1.50;;;28.60;46.00;;;;;;6211612;23;20001;-69
2022/09/06 11:39:01;;;;;;;2.88;1.40;;;28.70;46.30;;;;;;6230824;23;20011;-69
2022/09/06 11:41:53;;;;;;;3.75;2.10;;;28.90;46.20;;;;;;6226235;23;20410;-68
2022/09/06 11:44:56;;;;;;;2.55;1.58;;;29.00;46.10;;;;;;6208734;23;20004;-68
2022/09/06 11:47:39;;;;;;;1.45;1.30;;;29.10;46.00;;;;;;6211750;23;20685;-68
2022/09/06 11:50:20;;;;;;;6.32;2.75;;;29.20;45.80;;;;;;6211884;23;20008;-68
2022/09/06 11:53:02;;;;;;;3.73;1.70;;;29.30;45.80;;;;;;6211274;23;20440;-68
2022/09/06 11:55:37;;;;;;;2.60;1.60;;;29.30;45.80;;;;;;6211718;23;20012;-68
2022/09/06 11:58:11;;;;;;;3.15;1.67;;;29.40;45.80;;;;;;6210442;23;20385;-68
2022/09/06 12:00:37;;;;;;;2.70;1.70;;;29.50;45.80;;;;;;6210325;23;20004;-68
2022/09/06 12:03:07;;;;;;;1.88;1.40;;;29.70;45.50;;;;;;6210032;23;20021;-68
2022/09/06 12:05:53;;;;;;;2.77;1.97;;;29.70;45.20;;;;;;6209866;23;20592;-68
2022/09/06 12:08:21;;;;;;;2.63;1.55;;;29.80;44.90;;;;;;6207901;23;20070;-68
2022/09/06 12:11:02;;;;;;;2.95;2.30;;;29.90;45.10;;;;;;6210211;23;20314;-68
2022/09/06 12:13:59;;;;;;;3.45;1.70;;;29.90;44.70;;;;;;6210522;23;20007;-68
2022/09/06 12:16:56;;;;;;;2.75;1.42;;;29.90;44.90;;;;;;6210155;23;20001;-67
2022/09/06 12:19:45;;;;;;;2.47;1.67;;;30.00;44.80;;;;;;6208338;23;20016;-68
2022/09/06 12:22:45;;;;;;;2.97;1.45;;;30.10;44.60;;;;;;6209981;23;20080;-68
2022/09/06 12:25:39;;;;;;;1.73;1.20;;;30.10;44.70;;;;;;6210624;23;19997;-68
2022/09/06 12:28:10;;;;;;;3.28;1.80;;;30.00;44.80;;;;;;6217742;23;20596;-68
2022/09/06 12:30:42;;;;;;;2.63;1.40;;;30.00;44.80;;;;;;6233516;23;20019;-68
2022/09/06 12:33:35;;;;;;;2.13;1.70;;;30.10;45.00;;;;;;6221421;23;20009;-69
2022/09/06 12:36:13;;;;;;;3.47;1.60;;;30.20;45.00;;;;;;6214123;23;20008;-69
2022/09/06 12:38:39;;;;;;;3.70;1.73;;;30.30;44.90;;;;;;6212364;23;20009;-68
2022/09/06 12:41:07;;;;;;;2.50;2.00;;;30.40;44.60;;;;;;6218927;23;20007;-68
2022/09/06 12:43:35;;;;;;;3.45;1.50;;;30.30;44.10;;;;;;6218006;23;20426;-68
2022/09/06 12:46:04;;;;;;;7.95;2.42;;;30.30;44.50;;;;;;6213250;23;20334;-69
2022/09/06 12:48:32;;;;;;;1.77;1.30;;;30.30;43.80;;;;;;6207305;23;20011;-69
2022/09/06 12:51:19;;;;;;;3.08;2.03;;;30.20;44.20;;;;;;6210117;23;20016;-68
2022/09/06 12:53:53;;;;;;;1.92;1.30;;;30.20;44.40;;;;;;6209960;23;20005;-68
2022/09/06 12:56:24;;;;;;;3.13;1.50;;;30.40;44.50;;;;;;6209253;23;20004;-68
2022/09/06 12:58:49;;;;;;;2.42;1.65;;;30.50;44.60;;;;;;6206539;23;20027;-68
2022/09/06 13:01:18;;;;;;;1.23;1.13;;;30.50;44.60;;;;;;6208935;23;20642;-68
2022/09/06 13:03:52;;;;;;;2.83;1.90;;;30.70;44.50;;;;;;6208629;23;20020;-67
2022/09/06 13:06:21;;;;;;;2.60;1.80;;;30.80;44.00;;;;;;6208997;23;20005;-67
2022/09/06 13:08:51;;;;;;;3.72;1.60;;;30.90;43.80;;;;;;6207801;23;20000;-70